sensor_id;sensor_type;location;lat;lon;timestamp;P1;durP1;ratioP1;P2;durP2;ratioP2
65033;SDS011;51601;51.356;12.458;2022-09-21T00:03:01;8.70;;;3.60;;
65033;SDS011;51601;51.356;12.458;2022-09-21T00:07:16;7.47;;;3.63;;
65033;SDS011;51601;51.356;12.458;2022-09-21T00:11:30;9.38;;;3.95;;
65033;SDS011;51601;51.356;12.458;2022-09-21T00:15:44;7.80;;;4.00;;
65033;SDS011;51601;51.356;12.458;2022-09-21T00:19:58;9.00;;;3.67;;
65033;SDS011;51601;51.356;12.458;2022-09-21T00:24:14;9.20;;;3.95;;
65033;SDS011;51601;51.356;12.458;2022-09-21T00:28:28;9.80;;;4.43;;
65033;SDS011;51601;51.356;12.458;2022-09-21T00:32:41;8.00;;;4.40;;
65033;SDS011;51601;51.356;12.458;2022-09-21T00:36:55;10.45;;;5.03;;
65033;SDS011;51601;51.356;12.458;2022-09-21T00:41:10;9.90;;;4.90;;
65033;SDS011;51601;51.356;12.458;2022-09-21T00:45:25;10.27;;;4.87;;
65033;SDS011;51601;51.356;12.458;2022-09-21T00:49:39;9.02;;;4.65;;
65033;SDS011;51601;51.356;12.458;2022-09-21T00:54:03;9.73;;;5.00;;
65033;SDS011;51601;51.356;12.458;2022-09-21T00:58:24;10.47;;;5.27;;
65033;SDS011;51601;51.356;12.458;2022-09-21T01:02:42;13.68;;;5.13;;
65033;SDS011;51601;51.356;12.458;2022-09-21T01:06:56;10.45;;;5.35;;
65033;SDS011;51601;51.356;12.458;2022-09-21T01:11:26;12.35;;;5.35;;
65033;SDS011;51601;51.356;12.458;2022-09-21T01:15:48;11.63;;;5.30;;
65033;SDS011;51601;51.356;12.458;2022-09-21T01:20:24;9.43;;;5.07;;
65033;SDS011;51601;51.356;12.458;2022-09-21T01:24:50;10.00;;;5.28;;
65033;SDS011;51601;51.356;12.458;2022-09-21T01:29:19;8.93;;;5.17;;
65033;SDS011;51601;51.356;12.458;2022-09-21T01:33:41;10.15;;;5.05;;
65033;SDS011;51601;51.356;12.458;2022-09-21T01:38:01;8.98;;;5.22;;
65033;SDS011;51601;51.356;12.458;2022-09-21T01:42:18;10.40;;;4.90;;
65033;SDS011;51601;51.356;12.458;2022-09-21T01:46:35;10.05;;;5.30;;
65033;SDS011;51601;51.356;12.458;2022-09-21T01:50:51;14.50;;;5.30;;
65033;SDS011;51601;51.356;12.458;2022-09-21T01:55:08;11.48;;;5.35;;
65033;SDS011;51601;51.356;12.458;2022-09-21T01:59:25;9.97;;;5.10;;
65033;SDS011;51601;51.356;12.458;2022-09-21T02:03:47;10.07;;;5.43;;
65033;SDS011;51601;51.356;12.458;2022-09-21T02:08:04;10.25;;;5.72;;
65033;SDS011;51601;51.356;12.458;2022-09-21T02:12:19;11.97;;;6.00;;
65033;SDS011;51601;51.356;12.458;2022-09-21T02:16:33;11.07;;;5.78;;
65033;SDS011;51601;51.356;12.458;2022-09-21T02:20:53;10.10;;;5.60;;
65033;SDS011;51601;51.356;12.458;2022-09-21T02:25:11;10.03;;;5.97;;
65033;SDS011;51601;51.356;12.458;2022-09-21T02:29:28;13.48;;;5.90;;
65033;SDS011;51601;51.356;12.458;2022-09-21T02:33:54;10.15;;;5.30;;
65033;SDS011;51601;51.356;12.458;2022-09-21T02:38:13;12.05;;;5.78;;
65033;SDS011;51601;51.356;12.458;2022-09-21T02:42:38;11.00;;;5.77;;
65033;SDS011;51601;51.356;12.458;2022-09-21T02:46:57;13.95;;;6.15;;
65033;SDS011;51601;51.356;12.458;2022-09-21T02:51:15;12.73;;;6.30;;
65033;SDS011;51601;51.356;12.458;2022-09-21T02:55:35;12.40;;;6.93;;
65033;SDS011;51601;51.356;12.458;2022-09-21T02:59:50;10.35;;;6.28;;
65033;SDS011;51601;51.356;12.458;2022-09-21T03:04:04;11.35;;;6.75;;
65033;SDS011;51601;51.356;12.458;2022-09-21T03:08:18;12.87;;;6.50;;
65033;SDS011;51601;51.356;12.458;2022-09-21T03:12:33;15.38;;;6.63;;
65033;SDS011;51601;51.356;12.458;2022-09-21T03:16:48;15.00;;;7.05;;
65033;SDS011;51601;51.356;12.458;2022-09-21T03:21:01;14.18;;;6.80;;
65033;SDS011;51601;51.356;12.458;2022-09-21T03:25:15;12.63;;;7.00;;
65033;SDS011;51601;51.356;12.458;2022-09-21T03:29:31;16.45;;;7.65;;
65033;SDS011;51601;51.356;12.458;2022-09-21T03:33:45;13.95;;;7.50;;
65033;SDS011;51601;51.356;12.458;2022-09-21T03:37:59;14.40;;;7.53;;
65033;SDS011;51601;51.356;12.458;2022-09-21T03:42:13;14.32;;;8.20;;
65033;SDS011;51601;51.356;12.458;2022-09-21T03:46:28;14.88;;;8.02;;
65033;SDS011;51601;51.356;12.458;2022-09-21T03:50:43;16.20;;;8.90;;
65033;SDS011;51601;51.356;12.458;2022-09-21T03:54:57;14.38;;;7.70;;
65033;SDS011;51601;51.356;12.458;2022-09-21T03:59:11;15.48;;;7.78;;
65033;SDS011;51601;51.356;12.458;2022-09-21T04:03:26;14.57;;;7.35;;
65033;SDS011;51601;51.356;12.458;2022-09-21T04:07:43;16.20;;;7.07;;
65033;SDS011;51601;51.356;12.458;2022-09-21T04:11:57;16.35;;;7.60;;
65033;SDS011;51601;51.356;12.458;2022-09-21T04:16:11;17.00;;;7.30;;
65033;SDS011;51601;51.356;12.458;2022-09-21T04:20:26;17.40;;;8.10;;
65033;SDS011;51601;51.356;12.458;2022-09-21T04:24:40;15.25;;;7.47;;
65033;SDS011;51601;51.356;12.458;2022-09-21T04:28:54;17.98;;;7.80;;
65033;SDS011;51601;51.356;12.458;2022-09-21T04:33:08;14.27;;;7.67;;
65033;SDS011;51601;51.356;12.458;2022-09-21T04:37:23;13.52;;;7.80;;
65033;SDS011;51601;51.356;12.458;2022-09-21T04:41:37;19.88;;;7.80;;
65033;SDS011;51601;51.356;12.458;2022-09-21T04:45:51;16.40;;;8.48;;
65033;SDS011;51601;51.356;12.458;2022-09-21T04:50:05;15.37;;;8.00;;
65033;SDS011;51601;51.356;12.458;2022-09-21T04:54:21;15.50;;;7.65;;
65033;SDS011;51601;51.356;12.458;2022-09-21T04:58:35;16.58;;;8.25;;
65033;SDS011;51601;51.356;12.458;2022-09-21T05:02:48;15.60;;;8.70;;
65033;SDS011;51601;51.356;12.458;2022-09-21T05:07:03;16.88;;;8.38;;
65033;SDS011;51601;51.356;12.458;2022-09-21T05:11:18;16.27;;;8.55;;
65033;SDS011;51601;51.356;12.458;2022-09-21T05:15:32;16.80;;;8.33;;
65033;SDS011;51601;51.356;12.458;2022-09-21T05:19:46;15.45;;;8.30;;
65033;SDS011;51601;51.356;12.458;2022-09-21T05:24:00;13.00;;;7.00;;
65033;SDS011;51601;51.356;12.458;2022-09-21T05:28:15;11.90;;;6.22;;
65033;SDS011;51601;51.356;12.458;2022-09-21T05:32:33;10.43;;;5.67;;
65033;SDS011;51601;51.356;12.458;2022-09-21T05:36:57;11.45;;;5.50;;
65033;SDS011;51601;51.356;12.458;2022-09-21T05:41:15;10.23;;;5.07;;
65033;SDS011;51601;51.356;12.458;2022-09-21T05:45:31;11.20;;;5.87;;
65033;SDS011;51601;51.356;12.458;2022-09-21T05:49:47;9.48;;;5.68;;
65033;SDS011;51601;51.356;12.458;2022-09-21T05:54:10;10.38;;;5.82;;
65033;SDS011;51601;51.356;12.458;2022-09-21T05:58:33;12.90;;;5.90;;
65033;SDS011;51601;51.356;12.458;2022-09-21T06:03:00;11.57;;;6.15;;
65033;SDS011;51601;51.356;12.458;2022-09-21T06:07:29;12.57;;;6.43;;
65033;SDS011;51601;51.356;12.458;2022-09-21T06:11:43;14.57;;;6.60;;
65033;SDS011;51601;51.356;12.458;2022-09-21T06:16:00;14.53;;;6.40;;
65033;SDS011;51601;51.356;12.458;2022-09-21T06:20:15;9.13;;;5.40;;
65033;SDS011;51601;51.356;12.458;2022-09-21T06:24:29;10.50;;;5.05;;
65033;SDS011;51601;51.356;12.458;2022-09-21T06:28:43;9.20;;;4.20;;
65033;SDS011;51601;51.356;12.458;2022-09-21T06:32:57;11.32;;;4.90;;
65033;SDS011;51601;51.356;12.458;2022-09-21T06:37:16;11.68;;;4.90;;
65033;SDS011;51601;51.356;12.458;2022-09-21T06:41:30;8.43;;;4.50;;
65033;SDS011;51601;51.356;12.458;2022-09-21T06:45:45;13.05;;;5.30;;
65033;SDS011;51601;51.356;12.458;2022-09-21T06:50:06;10.10;;;5.35;;
65033;SDS011;51601;51.356;12.458;2022-09-21T06:54:21;10.88;;;5.40;;
65033;SDS011;51601;51.356;12.458;2022-09-21T06:58:35;11.27;;;5.33;;
65033;SDS011;51601;51.356;12.458;2022-09-21T07:02:49;13.05;;;5.78;;
65033;SDS011;51601;51.356;12.458;2022-09-21T07:07:03;14.63;;;5.40;;
65033;SDS011;51601;51.356;12.458;2022-09-21T07:11:18;13.77;;;5.87;;
65033;SDS011;51601;51.356;12.458;2022-09-21T07:15:32;12.68;;;6.85;;
65033;SDS011;51601;51.356;12.458;2022-09-21T07:19:46;12.30;;;5.28;;
65033;SDS011;51601;51.356;12.458;2022-09-21T07:24:01;10.33;;;4.70;;
65033;SDS011;51601;51.356;12.458;2022-09-21T07:28:23;8.75;;;4.72;;
65033;SDS011;51601;51.356;12.458;2022-09-21T07:32:37;9.55;;;4.80;;
65033;SDS011;51601;51.356;12.458;2022-09-21T07:36:51;11.63;;;4.80;;
65033;SDS011;51601;51.356;12.458;2022-09-21T07:41:05;9.80;;;4.87;;
65033;SDS011;51601;51.356;12.458;2022-09-21T07:45:20;10.07;;;5.25;;
65033;SDS011;51601;51.356;12.458;2022-09-21T07:49:34;11.45;;;4.30;;
65033;SDS011;51601;51.356;12.458;2022-09-21T07:53:52;11.47;;;5.03;;
65033;SDS011;51601;51.356;12.458;2022-09-21T07:58:07;8.60;;;4.50;;
65033;SDS011;51601;51.356;12.458;2022-09-21T08:02:40;8.18;;;4.60;;
65033;SDS011;51601;51.356;12.458;2022-09-21T08:06:59;8.93;;;4.50;;
65033;SDS011;51601;51.356;12.458;2022-09-21T08:11:13;10.95;;;4.40;;
65033;SDS011;51601;51.356;12.458;2022-09-21T08:15:27;10.55;;;4.95;;
65033;SDS011;51601;51.356;12.458;2022-09-21T08:20:02;9.45;;;4.32;;
65033;SDS011;51601;51.356;12.458;2022-09-21T08:24:16;7.73;;;4.10;;
65033;SDS011;51601;51.356;12.458;2022-09-21T08:28:30;9.35;;;4.50;;
65033;SDS011;51601;51.356;12.458;2022-09-21T08:32:45;10.02;;;4.25;;
65033;SDS011;51601;51.356;12.458;2022-09-21T08:37:04;8.03;;;4.10;;
65033;SDS011;51601;51.356;12.458;2022-09-21T08:41:18;10.55;;;4.30;;
65033;SDS011;51601;51.356;12.458;2022-09-21T08:45:37;9.75;;;4.80;;
65033;SDS011;51601;51.356;12.458;2022-09-21T08:49:54;9.57;;;4.83;;
65033;SDS011;51601;51.356;12.458;2022-09-21T08:54:14;10.75;;;4.72;;
65033;SDS011;51601;51.356;12.458;2022-09-21T08:58:39;10.40;;;5.00;;
65033;SDS011;51601;51.356;12.458;2022-09-21T09:03:00;10.32;;;4.78;;
65033;SDS011;51601;51.356;12.458;2022-09-21T09:07:32;8.90;;;4.57;;
65033;SDS011;51601;51.356;12.458;2022-09-21T09:12:08;12.07;;;4.90;;
65033;SDS011;51601;51.356;12.458;2022-09-21T09:16:37;10.27;;;5.38;;
65033;SDS011;51601;51.356;12.458;2022-09-21T09:21:01;9.57;;;5.43;;
65033;SDS011;51601;51.356;12.458;2022-09-21T09:25:22;8.07;;;4.60;;
65033;SDS011;51601;51.356;12.458;2022-09-21T09:29:40;12.23;;;4.93;;
65033;SDS011;51601;51.356;12.458;2022-09-21T09:34:01;10.20;;;4.47;;
65033;SDS011;51601;51.356;12.458;2022-09-21T09:38:24;9.45;;;5.05;;
65033;SDS011;51601;51.356;12.458;2022-09-21T09:42:45;10.27;;;5.45;;
65033;SDS011;51601;51.356;12.458;2022-09-21T09:47:08;13.38;;;4.82;;
65033;SDS011;51601;51.356;12.458;2022-09-21T09:51:31;9.90;;;4.67;;
65033;SDS011;51601;51.356;12.458;2022-09-21T09:55:51;11.27;;;4.55;;
65033;SDS011;51601;51.356;12.458;2022-09-21T10:00:06;10.05;;;4.43;;
65033;SDS011;51601;51.356;12.458;2022-09-21T10:04:26;9.67;;;4.47;;
65033;SDS011;51601;51.356;12.458;2022-09-21T10:08:42;8.48;;;4.85;;
65033;SDS011;51601;51.356;12.458;2022-09-21T10:13:01;11.38;;;4.57;;
65033;SDS011;51601;51.356;12.458;2022-09-21T10:17:19;9.53;;;4.20;;
65033;SDS011;51601;51.356;12.458;2022-09-21T10:21:38;10.13;;;3.30;;
65033;SDS011;51601;51.356;12.458;2022-09-21T10:25:58;9.15;;;3.33;;
65033;SDS011;51601;51.356;12.458;2022-09-21T10:30:30;9.77;;;3.00;;
65033;SDS011;51601;51.356;12.458;2022-09-21T10:35:00;8.97;;;3.00;;
65033;SDS011;51601;51.356;12.458;2022-09-21T10:39:30;7.03;;;2.50;;
65033;SDS011;51601;51.356;12.458;2022-09-21T10:43:45;6.68;;;1.40;;
65033;SDS011;51601;51.356;12.458;2022-09-21T10:48:06;5.70;;;1.70;;
65033;SDS011;51601;51.356;12.458;2022-09-21T10:52:31;9.27;;;1.70;;
65033;SDS011;51601;51.356;12.458;2022-09-21T10:56:53;5.22;;;1.88;;
65033;SDS011;51601;51.356;12.458;2022-09-21T11:01:10;6.73;;;2.20;;
65033;SDS011;51601;51.356;12.458;2022-09-21T11:05:27;5.55;;;1.85;;
65033;SDS011;51601;51.356;12.458;2022-09-21T11:09:46;9.15;;;2.28;;
65033;SDS011;51601;51.356;12.458;2022-09-21T11:14:09;6.68;;;1.90;;
65033;SDS011;51601;51.356;12.458;2022-09-21T11:18:34;5.10;;;1.70;;
65033;SDS011;51601;51.356;12.458;2022-09-21T11:22:55;5.60;;;2.15;;
65033;SDS011;51601;51.356;12.458;2022-09-21T11:27:17;5.80;;;1.50;;
65033;SDS011;51601;51.356;12.458;2022-09-21T11:31:39;6.60;;;1.87;;
65033;SDS011;51601;51.356;12.458;2022-09-21T11:36:01;7.75;;;2.20;;
65033;SDS011;51601;51.356;12.458;2022-09-21T11:40:30;7.30;;;2.08;;
65033;SDS011;51601;51.356;12.458;2022-09-21T11:44:54;6.73;;;2.07;;
65033;SDS011;51601;51.356;12.458;2022-09-21T11:49:18;7.28;;;1.90;;
65033;SDS011;51601;51.356;12.458;2022-09-21T11:54:02;5.22;;;1.80;;
65033;SDS011;51601;51.356;12.458;2022-09-21T11:58:29;4.85;;;1.60;;
65033;SDS011;51601;51.356;12.458;2022-09-21T12:07:48;5.90;;;2.00;;
65033;SDS011;51601;51.356;12.458;2022-09-21T12:12:15;4.90;;;1.40;;
65033;SDS011;51601;51.356;12.458;2022-09-21T12:16:33;4.50;;;1.40;;
65033;SDS011;51601;51.356;12.458;2022-09-21T12:20:52;4.93;;;1.30;;
65033;SDS011;51601;51.356;12.458;2022-09-21T12:25:14;4.65;;;1.30;;
65033;SDS011;51601;51.356;12.458;2022-09-21T12:29:33;6.77;;;1.80;;
65033;SDS011;51601;51.356;12.458;2022-09-21T12:33:50;4.38;;;1.45;;
65033;SDS011;51601;51.356;12.458;2022-09-21T12:38:11;5.50;;;1.65;;
65033;SDS011;51601;51.356;12.458;2022-09-21T12:42:32;4.07;;;1.50;;
65033;SDS011;51601;51.356;12.458;2022-09-21T12:46:53;6.40;;;1.90;;
65033;SDS011;51601;51.356;12.458;2022-09-21T12:51:21;5.03;;;1.92;;
65033;SDS011;51601;51.356;12.458;2022-09-21T12:55:41;5.03;;;1.80;;
65033;SDS011;51601;51.356;12.458;2022-09-21T13:00:05;7.13;;;2.17;;
65033;SDS011;51601;51.356;12.458;2022-09-21T13:04:26;7.25;;;1.88;;
65033;SDS011;51601;51.356;12.458;2022-09-21T13:08:58;5.55;;;2.30;;
65033;SDS011;51601;51.356;12.458;2022-09-21T13:13:21;5.60;;;1.90;;
65033;SDS011;51601;51.356;12.458;2022-09-21T13:17:40;5.28;;;1.73;;
65033;SDS011;51601;51.356;12.458;2022-09-21T13:22:08;5.57;;;1.60;;
65033;SDS011;51601;51.356;12.458;2022-09-21T13:26:30;5.72;;;1.83;;
65033;SDS011;51601;51.356;12.458;2022-09-21T13:30:48;6.60;;;1.60;;
65033;SDS011;51601;51.356;12.458;2022-09-21T13:35:49;5.40;;;1.88;;
65033;SDS011;51601;51.356;12.458;2022-09-21T13:44:47;4.83;;;2.07;;
65033;SDS011;51601;51.356;12.458;2022-09-21T13:49:01;5.05;;;2.08;;
65033;SDS011;51601;51.356;12.458;2022-09-21T13:53:30;6.20;;;1.75;;
65033;SDS011;51601;51.356;12.458;2022-09-21T13:57:50;4.53;;;1.87;;
65033;SDS011;51601;51.356;12.458;2022-09-21T14:02:09;4.90;;;1.80;;
65033;SDS011;51601;51.356;12.458;2022-09-21T14:06:41;5.38;;;1.70;;
65033;SDS011;51601;51.356;12.458;2022-09-21T14:10:58;4.32;;;1.50;;
65033;SDS011;51601;51.356;12.458;2022-09-21T14:15:35;4.50;;;1.50;;
65033;SDS011;51601;51.356;12.458;2022-09-21T14:19:57;5.22;;;1.27;;
65033;SDS011;51601;51.356;12.458;2022-09-21T14:24:19;3.60;;;1.25;;
65033;SDS011;51601;51.356;12.458;2022-09-21T14:28:36;6.13;;;1.50;;
65033;SDS011;51601;51.356;12.458;2022-09-21T14:33:00;2.95;;;1.20;;
65033;SDS011;51601;51.356;12.458;2022-09-21T14:37:25;3.45;;;1.52;;
65033;SDS011;51601;51.356;12.458;2022-09-21T14:41:43;3.80;;;1.30;;
65033;SDS011;51601;51.356;12.458;2022-09-21T14:46:16;3.70;;;1.40;;
65033;SDS011;51601;51.356;12.458;2022-09-21T14:50:50;3.83;;;1.30;;
65033;SDS011;51601;51.356;12.458;2022-09-21T14:55:14;3.88;;;1.05;;
65033;SDS011;51601;51.356;12.458;2022-09-21T14:59:34;3.63;;;1.10;;
65033;SDS011;51601;51.356;12.458;2022-09-21T15:04:06;3.25;;;1.00;;
65033;SDS011;51601;51.356;12.458;2022-09-21T15:08:42;3.28;;;1.10;;
65033;SDS011;51601;51.356;12.458;2022-09-21T15:13:23;3.60;;;1.20;;
65033;SDS011;51601;51.356;12.458;2022-09-21T15:17:50;3.20;;;1.10;;
65033;SDS011;51601;51.356;12.458;2022-09-21T15:22:14;4.43;;;1.42;;
65033;SDS011;51601;51.356;12.458;2022-09-21T15:26:31;3.73;;;1.30;;
65033;SDS011;51601;51.356;12.458;2022-09-21T15:30:45;3.90;;;1.42;;
65033;SDS011;51601;51.356;12.458;2022-09-21T15:35:00;4.00;;;1.50;;
65033;SDS011;51601;51.356;12.458;2022-09-21T15:39:24;4.75;;;1.50;;
65033;SDS011;51601;51.356;12.458;2022-09-21T15:43:39;4.73;;;1.57;;
65033;SDS011;51601;51.356;12.458;2022-09-21T15:47:53;4.05;;;1.33;;
65033;SDS011;51601;51.356;12.458;2022-09-21T15:52:15;5.70;;;1.50;;
65033;SDS011;51601;51.356;12.458;2022-09-21T15:56:36;5.20;;;1.60;;
65033;SDS011;51601;51.356;12.458;2022-09-21T16:00:55;4.70;;;1.70;;
65033;SDS011;51601;51.356;12.458;2022-09-21T16:05:11;4.00;;;1.40;;
65033;SDS011;51601;51.356;12.458;2022-09-21T16:09:27;6.27;;;1.80;;
65033;SDS011;51601;51.356;12.458;2022-09-21T16:14:02;5.20;;;1.50;;
65033;SDS011;51601;51.356;12.458;2022-09-21T16:18:39;5.53;;;2.30;;
65033;SDS011;51601;51.356;12.458;2022-09-21T16:23:02;5.30;;;2.00;;
65033;SDS011;51601;51.356;12.458;2022-09-21T16:27:25;5.70;;;1.90;;
65033;SDS011;51601;51.356;12.458;2022-09-21T16:31:42;4.75;;;1.98;;
65033;SDS011;51601;51.356;12.458;2022-09-21T16:36:01;7.40;;;2.10;;
65033;SDS011;51601;51.356;12.458;2022-09-21T16:40:15;5.87;;;1.87;;
65033;SDS011;51601;51.356;12.458;2022-09-21T16:44:30;4.97;;;1.77;;
65033;SDS011;51601;51.356;12.458;2022-09-21T16:48:53;4.93;;;1.85;;
65033;SDS011;51601;51.356;12.458;2022-09-21T16:53:06;7.23;;;2.00;;
65033;SDS011;51601;51.356;12.458;2022-09-21T16:57:20;5.57;;;2.08;;
65033;SDS011;51601;51.356;12.458;2022-09-21T17:01:34;5.63;;;2.10;;
65033;SDS011;51601;51.356;12.458;2022-09-21T17:05:50;5.80;;;1.98;;
65033;SDS011;51601;51.356;12.458;2022-09-21T17:10:08;5.77;;;2.30;;
65033;SDS011;51601;51.356;12.458;2022-09-21T17:14:24;6.63;;;2.13;;
65033;SDS011;51601;51.356;12.458;2022-09-21T17:18:38;6.28;;;2.60;;
65033;SDS011;51601;51.356;12.458;2022-09-21T17:22:54;7.07;;;2.33;;
65033;SDS011;51601;51.356;12.458;2022-09-21T17:27:08;6.38;;;2.30;;
65033;SDS011;51601;51.356;12.458;2022-09-21T17:31:23;6.07;;;2.28;;
65033;SDS011;51601;51.356;12.458;2022-09-21T17:35:39;5.37;;;2.30;;
65033;SDS011;51601;51.356;12.458;2022-09-21T17:39:55;8.20;;;2.22;;
65033;SDS011;51601;51.356;12.458;2022-09-21T17:44:12;8.30;;;2.80;;
65033;SDS011;51601;51.356;12.458;2022-09-21T17:48:28;8.57;;;2.92;;
65033;SDS011;51601;51.356;12.458;2022-09-21T17:52:45;7.10;;;2.67;;
65033;SDS011;51601;51.356;12.458;2022-09-21T17:57:28;9.10;;;2.92;;
65033;SDS011;51601;51.356;12.458;2022-09-21T18:01:52;7.78;;;2.67;;
65033;SDS011;51601;51.356;12.458;2022-09-21T18:06:10;8.80;;;4.07;;
65033;SDS011;51601;51.356;12.458;2022-09-21T18:10:25;6.30;;;2.78;;
65033;SDS011;51601;51.356;12.458;2022-09-21T18:14:45;8.35;;;3.30;;
65033;SDS011;51601;51.356;12.458;2022-09-21T18:19:19;11.83;;;3.20;;
65033;SDS011;51601;51.356;12.458;2022-09-21T18:23:43;7.22;;;2.90;;
65033;SDS011;51601;51.356;12.458;2022-09-21T18:28:18;9.68;;;3.28;;
65033;SDS011;51601;51.356;12.458;2022-09-21T18:32:42;7.85;;;3.30;;
65033;SDS011;51601;51.356;12.458;2022-09-21T18:37:08;6.47;;;2.70;;
65033;SDS011;51601;51.356;12.458;2022-09-21T18:41:31;6.53;;;3.10;;
65033;SDS011;51601;51.356;12.458;2022-09-21T18:45:52;7.28;;;2.88;;
65033;SDS011;51601;51.356;12.458;2022-09-21T18:50:17;8.43;;;3.57;;
65033;SDS011;51601;51.356;12.458;2022-09-21T18:54:39;8.90;;;3.63;;
65033;SDS011;51601;51.356;12.458;2022-09-21T18:58:54;7.75;;;3.30;;
65033;SDS011;51601;51.356;12.458;2022-09-21T19:03:10;7.43;;;3.73;;
65033;SDS011;51601;51.356;12.458;2022-09-21T19:07:33;8.18;;;3.90;;
65033;SDS011;51601;51.356;12.458;2022-09-21T19:11:52;9.35;;;4.03;;
65033;SDS011;51601;51.356;12.458;2022-09-21T19:16:14;8.10;;;3.53;;
65033;SDS011;51601;51.356;12.458;2022-09-21T19:20:40;7.97;;;3.67;;
65033;SDS011;51601;51.356;12.458;2022-09-21T19:25:03;8.70;;;4.07;;
65033;SDS011;51601;51.356;12.458;2022-09-21T19:29:36;9.25;;;4.85;;
65033;SDS011;51601;51.356;12.458;2022-09-21T19:33:57;11.33;;;6.70;;
65033;SDS011;51601;51.356;12.458;2022-09-21T19:38:11;11.30;;;6.43;;
65033;SDS011;51601;51.356;12.458;2022-09-21T19:42:30;10.07;;;5.03;;
65033;SDS011;51601;51.356;12.458;2022-09-21T19:46:52;12.27;;;4.93;;
65033;SDS011;51601;51.356;12.458;2022-09-21T19:51:13;9.70;;;4.45;;
65033;SDS011;51601;51.356;12.458;2022-09-21T19:55:30;9.73;;;4.43;;
65033;SDS011;51601;51.356;12.458;2022-09-21T20:00:05;10.68;;;5.40;;
65033;SDS011;51601;51.356;12.458;2022-09-21T20:04:23;9.57;;;4.77;;
65033;SDS011;51601;51.356;12.458;2022-09-21T20:08:45;10.88;;;5.00;;
65033;SDS011;51601;51.356;12.458;2022-09-21T20:13:13;11.55;;;5.50;;
65033;SDS011;51601;51.356;12.458;2022-09-21T20:17:38;10.17;;;5.50;;
65033;SDS011;51601;51.356;12.458;2022-09-21T20:21:57;11.93;;;6.60;;
65033;SDS011;51601;51.356;12.458;2022-09-21T20:26:17;9.27;;;5.22;;
65033;SDS011;51601;51.356;12.458;2022-09-21T20:30:36;11.63;;;5.40;;
65033;SDS011;51601;51.356;12.458;2022-09-21T20:34:52;11.75;;;7.22;;
65033;SDS011;51601;51.356;12.458;2022-09-21T20:39:06;15.63;;;7.88;;
65033;SDS011;51601;51.356;12.458;2022-09-21T20:43:21;15.15;;;7.05;;
65033;SDS011;51601;51.356;12.458;2022-09-21T20:47:42;13.30;;;7.27;;
65033;SDS011;51601;51.356;12.458;2022-09-21T20:51:58;13.25;;;7.57;;
65033;SDS011;51601;51.356;12.458;2022-09-21T20:56:12;14.25;;;7.90;;
65033;SDS011;51601;51.356;12.458;2022-09-21T21:00:26;13.60;;;7.73;;
65033;SDS011;51601;51.356;12.458;2022-09-21T21:04:40;16.02;;;9.30;;
65033;SDS011;51601;51.356;12.458;2022-09-21T21:08:55;14.57;;;8.52;;
65033;SDS011;51601;51.356;12.458;2022-09-21T21:13:09;13.80;;;7.30;;
65033;SDS011;51601;51.356;12.458;2022-09-21T21:17:23;11.73;;;6.82;;
65033;SDS011;51601;51.356;12.458;2022-09-21T21:21:37;17.67;;;10.00;;
65033;SDS011;51601;51.356;12.458;2022-09-21T21:25:53;13.73;;;8.07;;
65033;SDS011;51601;51.356;12.458;2022-09-21T21:30:07;13.43;;;7.00;;
65033;SDS011;51601;51.356;12.458;2022-09-21T21:34:22;12.63;;;7.07;;
65033;SDS011;51601;51.356;12.458;2022-09-21T21:38:37;13.98;;;7.03;;
65033;SDS011;51601;51.356;12.458;2022-09-21T21:42:54;12.23;;;6.97;;
65033;SDS011;51601;51.356;12.458;2022-09-21T21:47:08;12.65;;;7.78;;
65033;SDS011;51601;51.356;12.458;2022-09-21T21:51:42;15.88;;;7.85;;
65033;SDS011;51601;51.356;12.458;2022-09-21T21:56:01;11.63;;;7.33;;
65033;SDS011;51601;51.356;12.458;2022-09-21T22:00:17;13.07;;;7.50;;
65033;SDS011;51601;51.356;12.458;2022-09-21T22:04:31;11.52;;;6.80;;
65033;SDS011;51601;51.356;12.458;2022-09-21T22:08:45;12.32;;;6.47;;
65033;SDS011;51601;51.356;12.458;2022-09-21T22:12:59;11.80;;;6.27;;
65033;SDS011;51601;51.356;12.458;2022-09-21T22:17:15;12.52;;;6.57;;
65033;SDS011;51601;51.356;12.458;2022-09-21T22:21:30;17.80;;;7.90;;
65033;SDS011;51601;51.356;12.458;2022-09-21T22:25:45;11.20;;;6.97;;
65033;SDS011;51601;51.356;12.458;2022-09-21T22:29:59;13.23;;;7.18;;
65033;SDS011;51601;51.356;12.458;2022-09-21T22:34:14;14.88;;;8.30;;
65033;SDS011;51601;51.356;12.458;2022-09-21T22:38:28;16.43;;;9.87;;
65033;SDS011;51601;51.356;12.458;2022-09-21T22:42:43;17.52;;;9.50;;
65033;SDS011;51601;51.356;12.458;2022-09-21T22:46:58;15.73;;;9.40;;
65033;SDS011;51601;51.356;12.458;2022-09-21T22:51:13;15.32;;;8.43;;
65033;SDS011;51601;51.356;12.458;2022-09-21T22:55:28;13.53;;;8.60;;
65033;SDS011;51601;51.356;12.458;2022-09-21T22:59:43;19.42;;;10.88;;
65033;SDS011;51601;51.356;12.458;2022-09-21T23:03:57;20.33;;;10.70;;
65033;SDS011;51601;51.356;12.458;2022-09-21T23:08:13;19.17;;;10.13;;
65033;SDS011;51601;51.356;12.458;2022-09-21T23:12:27;17.13;;;8.90;;
65033;SDS011;51601;51.356;12.458;2022-09-21T23:16:41;15.85;;;8.93;;
65033;SDS011;51601;51.356;12.458;2022-09-21T23:20:57;17.13;;;9.00;;
65033;SDS011;51601;51.356;12.458;2022-09-21T23:25:12;14.57;;;8.80;;
65033;SDS011;51601;51.356;12.458;2022-09-21T23:29:26;15.27;;;8.75;;
65033;SDS011;51601;51.356;12.458;2022-09-21T23:33:41;16.70;;;9.02;;
65033;SDS011;51601;51.356;12.458;2022-09-21T23:37:56;17.10;;;8.90;;
65033;SDS011;51601;51.356;12.458;2022-09-21T23:42:11;17.70;;;8.90;;
65033;SDS011;51601;51.356;12.458;2022-09-21T23:46:26;19.08;;;9.30;;
65033;SDS011;51601;51.356;12.458;2022-09-21T23:50:41;17.17;;;9.57;;
65033;SDS011;51601;51.356;12.458;2022-09-21T23:55:16;16.27;;;9.27;;
65033;SDS011;51601;51.356;12.458;2022-09-21T23:59:52;15.48;;;9.32;;
